createdAt,value
2017-04-03T00:00:25.283Z,1018.48
2017-04-03T00:01:35.556Z,1018.49
2017-04-03T00:02:45.881Z,1018.49
2017-04-03T00:03:56.160Z,1018.5
2017-04-03T00:05:06.074Z,1018.48
2017-04-03T00:06:16.361Z,1018.53
2017-04-03T00:07:26.329Z,1018.5
2017-04-03T00:08:36.283Z,1018.48
2017-04-03T00:09:46.555Z,1018.47
2017-04-03T00:10:57.089Z,1018.47
2017-04-03T00:12:07.063Z,1018.46
2017-04-03T00:13:17.026Z,1018.51
2017-04-03T00:14:27.322Z,1018.49
2017-04-03T00:15:37.597Z,1018.49
2017-04-03T00:16:48.172Z,1018.49
2017-04-03T00:17:58.447Z,1018.49
2017-04-03T00:19:08.103Z,1018.47
2017-04-03T00:20:18.064Z,1018.43
2017-04-03T00:21:28.338Z,1018.47
2017-04-03T00:22:38.913Z,1018.45
2017-04-03T00:23:49.185Z,1018.46
2017-04-03T00:24:59.149Z,1018.46
2017-04-03T00:26:09.421Z,1018.47
2017-04-03T00:27:19.689Z,1018.46
2017-04-03T00:28:30.267Z,1018.5
2017-04-03T00:29:40.543Z,1018.45
2017-04-03T00:30:50.818Z,1018.47
2017-04-03T00:32:01.144Z,1018.49
2017-04-03T00:33:11.129Z,1018.48
2017-04-03T00:34:21.654Z,1018.49
2017-04-03T00:35:31.931Z,1018.5
2017-04-03T00:36:42.225Z,1018.48
2017-04-03T00:37:52.547Z,1018.49
2017-04-03T00:39:03.057Z,1018.48
2017-04-03T00:40:13.270Z,1018.51
2017-04-03T00:41:23.545Z,1018.49
2017-04-03T00:42:33.519Z,1018.48
2017-04-03T00:43:43.798Z,1018.48
2017-04-03T00:44:54.086Z,1018.5
2017-04-03T00:46:04.674Z,1018.55
2017-04-03T00:47:14.952Z,1018.54
2017-04-03T00:48:25.153Z,1018.51
2017-04-03T00:49:35.483Z,1018.53
2017-04-03T00:50:45.450Z,1018.52
2017-04-03T00:51:55.985Z,1018.49
2017-04-03T00:53:05.642Z,1018.53
2017-04-03T00:54:15.618Z,1018.52
2017-04-03T00:55:25.887Z,1018.55
2017-04-03T00:56:36.165Z,1018.53
2017-04-03T00:57:46.427Z,1018.55
2017-04-03T00:58:56.431Z,1018.52
2017-04-03T01:00:06.708Z,1018.57
2017-04-03T01:01:16.978Z,1018.57
2017-04-03T01:02:26.939Z,1018.57
2017-04-03T01:03:37.146Z,1018.58
2017-04-03T01:04:47.417Z,1018.59
2017-04-03T01:05:57.682Z,1018.57
2017-04-03T01:07:07.645Z,1018.6
2017-04-03T01:08:17.611Z,1018.59
2017-04-03T01:09:28.183Z,1018.65
2017-04-03T01:10:38.145Z,1018.7
2017-04-03T01:11:48.414Z,1018.7
2017-04-03T01:12:58.392Z,1018.67
2017-04-03T01:14:08.655Z,1018.7
2017-04-03T01:15:19.186Z,1018.66
2017-04-03T01:16:29.474Z,1018.69
2017-04-03T01:17:39.442Z,1018.7
2017-04-03T01:18:49.406Z,1018.7
2017-04-03T01:19:59.685Z,1018.68
2017-04-03T01:21:10.216Z,1018.66
2017-04-03T01:22:20.175Z,1018.7
2017-04-03T01:23:30.446Z,1018.7
2017-04-03T01:24:40.725Z,1018.68
2017-04-03T01:25:51.002Z,1018.72
2017-04-03T01:27:01.264Z,1018.74
2017-04-03T01:28:11.223Z,1018.69
2017-04-03T01:29:21.187Z,1018.7
2017-04-03T01:30:31.458Z,1018.69
2017-04-03T01:31:41.740Z,1018.69
2017-04-03T01:32:52.267Z,1018.68
2017-04-03T01:34:02.238Z,1018.69
2017-04-03T01:35:12.198Z,1018.74
2017-04-03T01:36:22.464Z,1018.73
2017-04-03T01:37:32.752Z,1018.72
2017-04-03T01:38:43.271Z,1018.76
2017-04-03T01:39:53.547Z,1018.76
2017-04-03T01:41:03.522Z,1018.82
2017-04-03T01:42:13.802Z,1018.82
2017-04-03T01:43:24.069Z,1018.77
2017-04-03T01:44:34.271Z,1018.8
2017-04-03T01:45:44.246Z,1018.81
2017-04-03T01:46:54.523Z,1018.82
2017-04-03T01:48:04.497Z,1018.79
2017-04-03T01:49:14.829Z,1018.8
2017-04-03T01:50:25.397Z,1018.84
2017-04-03T01:51:35.672Z,1018.83
2017-04-03T01:52:45.966Z,1018.83
2017-04-03T01:53:56.236Z,1018.81
2017-04-03T01:55:06.201Z,1018.81
2017-04-03T01:56:16.739Z,1018.81
2017-04-03T01:57:27.025Z,1018.78
2017-04-03T01:58:37.304Z,1018.81
2017-04-03T01:59:47.581Z,1018.83
2017-04-03T02:00:57.853Z,1018.84
2017-04-03T02:02:08.437Z,1018.84
2017-04-03T02:03:18.394Z,1018.86
2017-04-03T02:04:28.665Z,1018.9
2017-04-03T02:05:38.940Z,1018.9
2017-04-03T02:06:48.901Z,1018.91
2017-04-03T02:07:59.414Z,1018.88
2017-04-03T02:09:09.371Z,1018.92
2017-04-03T02:10:19.643Z,1018.89
2017-04-03T02:11:29.928Z,1018.87
2017-04-03T02:12:39.895Z,1018.88
2017-04-03T02:13:50.476Z,1018.89
2017-04-03T02:15:00.739Z,1018.87
2017-04-03T02:16:10.705Z,1018.9
2017-04-03T02:17:20.971Z,1018.88
2017-04-03T02:18:31.240Z,1018.91
2017-04-03T02:19:41.796Z,1018.91
2017-04-03T02:20:52.078Z,1018.91
2017-04-03T02:22:02.350Z,1018.95
2017-04-03T02:23:12.632Z,1018.9
2017-04-03T02:24:22.290Z,1018.9
2017-04-03T02:25:32.553Z,1018.89
2017-04-03T02:26:42.827Z,1018.93
2017-04-03T02:27:53.089Z,1018.85
2017-04-03T02:29:03.362Z,1018.89
2017-04-03T02:30:13.321Z,1018.83
2017-04-03T02:31:23.841Z,1018.84
2017-04-03T02:32:34.154Z,1018.86
2017-04-03T02:33:44.134Z,1018.88
2017-04-03T02:34:53.800Z,1018.9
2017-04-03T02:36:04.071Z,1018.85
2017-04-03T02:37:14.291Z,1018.91
2017-04-03T02:38:24.460Z,1018.92
2017-04-03T02:39:34.759Z,1018.9
2017-04-03T02:40:44.728Z,1018.96
2017-04-03T02:41:54.998Z,1018.96
2017-04-03T02:43:05.207Z,1018.93
2017-04-03T02:44:15.166Z,1018.93
2017-04-03T02:45:25.126Z,1018.95
2017-04-03T02:46:35.400Z,1018.95
2017-04-03T02:47:45.699Z,1018.98
2017-04-03T02:48:56.217Z,1018.99
2017-04-03T02:50:06.482Z,1019.02
2017-04-03T02:51:16.439Z,1019.01
2017-04-03T02:52:26.407Z,1019
2017-04-03T02:53:36.678Z,1018.99
2017-04-03T02:54:46.941Z,1018.99
2017-04-03T02:55:57.217Z,1018.99
2017-04-03T02:57:07.497Z,1018.97
2017-04-03T02:58:17.150Z,1019
2017-04-03T02:59:27.437Z,1018.98
2017-04-03T03:00:37.650Z,1018.98
2017-04-03T03:01:47.927Z,1019.01
2017-04-03T03:02:58.200Z,1019.03
2017-04-03T03:04:08.154Z,1019.02
2017-04-03T03:05:18.427Z,1019.07
2017-04-03T03:06:28.682Z,1019.06
2017-04-03T03:07:38.953Z,1019.06
2017-04-03T03:08:49.222Z,1019.09
2017-04-03T03:09:59.198Z,1019.09
2017-04-03T03:11:09.462Z,1019.06
2017-04-03T03:12:20.029Z,1019.12
2017-04-03T03:13:29.696Z,1019.09
2017-04-03T03:14:39.973Z,1019.1
2017-04-03T03:15:50.247Z,1019.06
2017-04-03T03:17:00.525Z,1019.06
2017-04-03T03:18:10.758Z,1019.09
2017-04-03T03:19:20.733Z,1019.13
2017-04-03T03:20:30.999Z,1019.1
2017-04-03T03:21:41.270Z,1019.12
2017-04-03T03:22:51.244Z,1019.13
2017-04-03T03:24:01.829Z,1019.11
2017-04-03T03:25:12.109Z,1019.1
2017-04-03T03:26:22.082Z,1019.11
2017-04-03T03:27:32.355Z,1019.1
2017-04-03T03:28:42.009Z,1019.12
2017-04-03T03:29:52.568Z,1019.14
2017-04-03T03:31:02.859Z,1019.12
2017-04-03T03:32:13.136Z,1019.13
2017-04-03T03:33:22.790Z,1019.16
2017-04-03T03:34:33.057Z,1019.12
2017-04-03T03:35:43.629Z,1019.18
2017-04-03T03:36:53.951Z,1019.16
2017-04-03T03:38:04.219Z,1019.18
2017-04-03T03:39:14.180Z,1019.22
2017-04-03T03:40:24.341Z,1019.21
2017-04-03T03:41:34.911Z,1019.23
2017-04-03T03:42:45.185Z,1019.24
2017-04-03T03:43:55.147Z,1019.27
2017-04-03T03:45:05.420Z,1019.26
2017-04-03T03:46:15.695Z,1019.27
2017-04-03T03:47:25.962Z,1019.32
2017-04-03T03:48:36.238Z,1019.3
2017-04-03T03:49:46.509Z,1019.28
2017-04-03T03:50:56.178Z,1019.33
2017-04-03T03:52:06.492Z,1019.3
2017-04-03T03:53:17.011Z,1019.36
2017-04-03T03:54:26.983Z,1019.29
2017-04-03T03:55:37.265Z,1019.34
2017-04-03T03:56:47.541Z,1019.32
2017-04-03T03:57:57.196Z,1019.32
2017-04-03T03:59:07.721Z,1019.35
2017-04-03T04:00:18.011Z,1019.32
2017-04-03T04:01:27.981Z,1019.33
2017-04-03T04:02:38.257Z,1019.34
2017-04-03T04:03:48.840Z,1019.37
2017-04-03T04:04:59.444Z,1019.34
2017-04-03T04:06:09.727Z,1019.42
2017-04-03T04:07:20.011Z,1019.42
2017-04-03T04:08:30.288Z,1019.44
2017-04-03T04:09:40.561Z,1019.42
2017-04-03T04:10:51.083Z,1019.49
2017-04-03T04:12:01.385Z,1019.49
2017-04-03T04:13:11.673Z,1019.5
2017-04-03T04:14:21.949Z,1019.54
2017-04-03T04:15:31.963Z,1019.49
2017-04-03T04:16:42.545Z,1019.48
2017-04-03T04:17:52.847Z,1019.52
2017-04-03T04:19:03.136Z,1019.55
2017-04-03T04:20:13.109Z,1019.54
2017-04-03T04:21:23.373Z,1019.59
2017-04-03T04:22:33.912Z,1019.58
2017-04-03T04:23:43.870Z,1019.54
2017-04-03T04:24:53.852Z,1019.6
2017-04-03T04:26:03.855Z,1019.6
2017-04-03T04:27:14.136Z,1019.61
2017-04-03T04:28:24.088Z,1019.62
2017-04-03T04:29:34.363Z,1019.66
2017-04-03T04:30:44.491Z,1019.65
2017-04-03T04:31:54.787Z,1019.67
2017-04-03T04:33:04.748Z,1019.72
2017-04-03T04:34:15.311Z,1019.71
2017-04-03T04:35:25.584Z,1019.72
2017-04-03T04:36:35.558Z,1019.76
2017-04-03T04:37:45.516Z,1019.76
2017-04-03T04:38:55.786Z,1019.85
2017-04-03T04:40:06.059Z,1019.85
2017-04-03T04:41:16.012Z,1019.87
2017-04-03T04:42:25.971Z,1019.88
2017-04-03T04:43:35.939Z,1019.92
2017-04-03T04:44:46.224Z,1019.95
2017-04-03T04:45:56.447Z,1019.96
2017-04-03T04:47:06.420Z,1019.97
2017-04-03T04:48:16.684Z,1019.96
2017-04-03T04:49:26.335Z,1020.02
2017-04-03T04:50:36.610Z,1020.06
2017-04-03T04:51:46.827Z,1020.06
2017-04-03T04:52:57.105Z,1020.04
2017-04-03T04:54:07.064Z,1020.07
2017-04-03T04:55:17.035Z,1020.13
2017-04-03T04:56:27.304Z,1020.1
2017-04-03T04:57:37.833Z,1020.13
2017-04-03T04:58:48.117Z,1020.14
2017-04-03T04:59:58.083Z,1020.14
2017-04-03T05:01:08.055Z,1020.2
2017-04-03T05:02:18.024Z,1020.21
2017-04-03T05:03:28.254Z,1020.29
2017-04-03T05:04:38.222Z,1020.3
2017-04-03T05:05:48.501Z,1020.3
2017-04-03T05:06:58.789Z,1020.29
2017-04-03T05:08:09.088Z,1020.36
2017-04-03T05:09:19.825Z,1020.33
2017-04-03T05:10:29.805Z,1020.3
2017-04-03T05:11:39.482Z,1020.31
2017-04-03T05:12:49.755Z,1020.4
2017-04-03T05:14:00.047Z,1020.35
2017-04-03T05:15:10.577Z,1020.44
2017-04-03T05:16:21.145Z,1020.4
2017-04-03T05:17:31.420Z,1020.5
2017-04-03T05:18:41.696Z,1020.5
2017-04-03T05:19:51.673Z,1020.5
2017-04-03T05:21:01.633Z,1020.54
2017-04-03T05:22:11.581Z,1020.55
2017-04-03T05:23:21.883Z,1020.57
2017-04-03T05:24:31.847Z,1020.52
2017-04-03T05:25:42.147Z,1020.58
2017-04-03T05:26:52.361Z,1020.61
2017-04-03T05:28:02.640Z,1020.64
2017-04-03T05:29:12.938Z,1020.64
2017-04-03T05:30:23.223Z,1020.62
2017-04-03T05:31:33.486Z,1020.66
2017-04-03T05:32:43.708Z,1020.68
2017-04-03T05:33:53.671Z,1020.68
2017-04-03T05:35:03.644Z,1020.68
2017-04-03T05:36:13.304Z,1020.7
2017-04-03T05:37:23.573Z,1020.69
2017-04-03T05:38:33.798Z,1020.68
2017-04-03T05:39:44.065Z,1020.77
2017-04-03T05:40:54.352Z,1020.75
2017-04-03T05:42:04.624Z,1020.84
2017-04-03T05:43:14.942Z,1020.79
2017-04-03T05:44:25.475Z,1020.85
2017-04-03T05:45:35.752Z,1020.85
2017-04-03T05:46:46.066Z,1020.87
2017-04-03T05:47:56.366Z,1020.91
2017-04-03T05:49:06.655Z,1020.96
2017-04-03T05:50:16.857Z,1020.94
2017-04-03T05:51:27.146Z,1020.95
2017-04-03T05:52:37.439Z,1020.95
2017-04-03T05:53:47.714Z,1020.94
2017-04-03T05:54:57.677Z,1020.94
2017-04-03T05:56:07.892Z,1020.95
2017-04-03T05:57:17.866Z,1020.97
2017-04-03T05:58:28.138Z,1020.96
2017-04-03T05:59:38.163Z,1020.97
2017-04-03T06:00:48.454Z,1020.94
2017-04-03T06:01:58.994Z,1021.02
2017-04-03T06:03:09.508Z,1020.97
2017-04-03T06:04:19.782Z,1020.99
2017-04-03T06:05:30.053Z,1020.99
2017-04-03T06:06:40.330Z,1020.96
2017-04-03T06:07:50.235Z,1021.05
2017-04-03T06:09:00.533Z,1020.97
2017-04-03T06:10:10.501Z,1021
2017-04-03T06:11:20.807Z,1021.02
2017-04-03T06:12:31.091Z,1021.03
2017-04-03T06:13:41.297Z,1021.08
2017-04-03T06:14:51.573Z,1021.07
2017-04-03T06:16:01.850Z,1021.07
2017-04-03T06:17:12.136Z,1021.16
2017-04-03T06:18:22.105Z,1021.18
2017-04-03T06:19:32.695Z,1021.13
2017-04-03T06:20:42.674Z,1021.2
2017-04-03T06:21:52.963Z,1021.24
2017-04-03T06:23:02.974Z,1021.17
2017-04-03T06:24:12.646Z,1021.23
2017-04-03T06:25:23.227Z,1021.23
2017-04-03T06:26:33.603Z,1021.23
2017-04-03T06:27:43.585Z,1021.21
2017-04-03T06:28:53.866Z,1021.27
2017-04-03T06:30:04.387Z,1021.3
2017-04-03T06:31:14.975Z,1021.28
2017-04-03T06:32:25.273Z,1021.28
2017-04-03T06:33:35.539Z,1021.31
2017-04-03T06:34:45.518Z,1021.32
2017-04-03T06:35:55.806Z,1021.31
2017-04-03T06:37:05.405Z,1021.37
2017-04-03T06:38:15.375Z,1021.37
2017-04-03T06:39:25.040Z,1021.34
2017-04-03T06:40:35.030Z,1021.35
2017-04-03T06:41:45.315Z,1021.41
2017-04-03T06:42:55.859Z,1021.44
2017-04-03T06:44:06.133Z,1021.45
2017-04-03T06:45:16.160Z,1021.45
2017-04-03T06:46:26.437Z,1021.52
2017-04-03T06:47:36.740Z,1021.48
2017-04-03T06:48:47.290Z,1021.5
2017-04-03T06:49:57.610Z,1021.54
2017-04-03T06:51:07.908Z,1021.52
2017-04-03T06:52:18.217Z,1021.54
2017-04-03T06:53:28.557Z,1021.55
2017-04-03T06:54:39.099Z,1021.56
2017-04-03T06:55:49.405Z,1021.54
2017-04-03T06:56:59.689Z,1021.56
2017-04-03T06:58:09.982Z,1021.55
2017-04-03T06:59:20.164Z,1021.53
2017-04-03T07:00:30.399Z,1021.55
2017-04-03T07:01:40.715Z,1021.52
2017-04-03T07:02:50.680Z,1021.48
2017-04-03T07:04:00.673Z,1021.51
2017-04-03T07:05:10.648Z,1021.54
2017-04-03T07:06:21.205Z,1021.51
2017-04-03T07:07:31.487Z,1021.47
2017-04-03T07:08:41.459Z,1021.54
2017-04-03T07:09:51.791Z,1021.49
2017-04-03T07:11:01.778Z,1021.51
2017-04-03T07:12:12.020Z,1021.53
2017-04-03T07:13:22.331Z,1021.59
2017-04-03T07:14:32.753Z,1021.54
2017-04-03T07:15:43.074Z,1021.58
2017-04-03T07:16:53.387Z,1021.56
2017-04-03T07:18:03.916Z,1021.62
2017-04-03T07:19:13.918Z,1021.55
2017-04-03T07:20:24.230Z,1021.62
2017-04-03T07:21:34.256Z,1021.65
2017-04-03T07:22:44.241Z,1021.63
2017-04-03T07:23:54.779Z,1021.69
2017-04-03T07:25:04.786Z,1021.71
2017-04-03T07:26:15.075Z,1021.72
2017-04-03T07:27:25.373Z,1021.69
2017-04-03T07:28:35.684Z,1021.69
2017-04-03T07:29:46.265Z,1021.69
2017-04-03T07:30:56.553Z,1021.7
2017-04-03T07:32:06.533Z,1021.73
2017-04-03T07:33:16.511Z,1021.73
2017-04-03T07:34:27.019Z,1021.75
2017-04-03T07:35:37.629Z,1021.79
2017-04-03T07:36:47.599Z,1021.8
2017-04-03T07:37:57.242Z,1021.74
2017-04-03T07:39:07.196Z,1021.78
2017-04-03T07:40:17.485Z,1021.81
2017-04-03T07:41:28.071Z,1021.83
2017-04-03T07:42:38.367Z,1021.83
2017-04-03T07:43:48.652Z,1021.83
2017-04-03T07:44:58.296Z,1021.86
2017-04-03T07:46:08.596Z,1021.86
2017-04-03T07:47:19.130Z,1021.86
2017-04-03T07:48:29.400Z,1021.85
2017-04-03T07:49:39.398Z,1021.84
2017-04-03T07:50:49.693Z,1021.83
2017-04-03T07:51:59.668Z,1021.86
2017-04-03T07:53:09.948Z,1021.86
2017-04-03T07:54:19.922Z,1021.85
2017-04-03T07:55:30.239Z,1021.85
2017-04-03T07:56:40.526Z,1021.86
2017-04-03T07:57:50.492Z,1021.87
2017-04-03T07:59:01.024Z,1021.92
2017-04-03T08:00:11.299Z,1021.9
2017-04-03T08:01:21.320Z,1021.91
2017-04-03T08:02:31.287Z,1021.94
2017-04-03T08:03:41.598Z,1021.96
2017-04-03T08:04:51.882Z,1021.93
2017-04-03T08:06:02.165Z,1021.99
2017-04-03T08:07:12.442Z,1022.04
2017-04-03T08:08:22.737Z,1022
2017-04-03T08:09:32.415Z,1022.03
2017-04-03T08:10:42.710Z,1022.05
2017-04-03T08:11:52.992Z,1022.04
2017-04-03T08:13:03.009Z,1022.08
2017-04-03T08:14:12.657Z,1022.1
2017-04-03T08:15:22.937Z,1022.1
2017-04-03T08:16:33.473Z,1022.12
2017-04-03T08:17:43.808Z,1022.06
2017-04-03T08:18:53.493Z,1022.13
2017-04-03T08:20:03.465Z,1022.13
2017-04-03T08:21:13.486Z,1022.12
2017-04-03T08:22:24.020Z,1022.19
2017-04-03T08:23:33.985Z,1022.14
2017-04-03T08:24:44.282Z,1022.16
2017-04-03T08:25:54.569Z,1022.14
2017-04-03T08:27:04.876Z,1022.12
2017-04-03T08:28:15.434Z,1022.1
2017-04-03T08:29:25.711Z,1022.11
2017-04-03T08:30:35.363Z,1022.11
2017-04-03T08:31:45.661Z,1022.12
2017-04-03T08:32:55.966Z,1022.06
2017-04-03T08:34:06.651Z,1022.11
2017-04-03T08:35:16.955Z,1022.1
2017-04-03T08:36:26.955Z,1022.06
2017-04-03T08:37:36.916Z,1022.11
2017-04-03T08:38:46.901Z,1022.11
2017-04-03T08:39:57.439Z,1022.12
2017-04-03T08:41:07.736Z,1022.12
2017-04-03T08:42:17.707Z,1022.1
2017-04-03T08:43:27.997Z,1022.11
2017-04-03T08:44:38.273Z,1022.13
2017-04-03T08:45:48.584Z,1022.19
2017-04-03T08:46:58.267Z,1022.12
2017-04-03T08:48:07.953Z,1022.12
2017-04-03T08:49:17.926Z,1022.12
2017-04-03T08:50:28.265Z,1022.16
2017-04-03T08:51:38.498Z,1022.17
2017-04-03T08:52:48.481Z,1022.17
2017-04-03T08:53:58.874Z,1022.18
2017-04-03T08:55:09.221Z,1022.22
2017-04-03T08:56:19.519Z,1022.24
2017-04-03T08:57:30.039Z,1022.23
2017-04-03T08:58:40.360Z,1022.23
2017-04-03T08:59:50.665Z,1022.21
2017-04-03T09:01:00.956Z,1022.2
2017-04-03T09:02:10.932Z,1022.21
2017-04-03T09:03:21.512Z,1022.24
2017-04-03T09:04:31.794Z,1022.24
2017-04-03T09:05:42.088Z,1022.31
2017-04-03T09:06:52.065Z,1022.3
2017-04-03T09:08:02.350Z,1022.28
2017-04-03T09:09:12.611Z,1022.31
2017-04-03T09:10:23.000Z,1022.31
2017-04-03T09:11:33.297Z,1022.3
2017-04-03T09:12:43.588Z,1022.3
2017-04-03T09:13:53.590Z,1022.29
2017-04-03T09:15:04.141Z,1022.28
2017-04-03T09:16:14.116Z,1022.29
2017-04-03T09:17:24.078Z,1022.32
2017-04-03T09:18:34.064Z,1022.34
2017-04-03T09:19:44.383Z,1022.38
2017-04-03T09:20:54.913Z,1022.32
2017-04-03T09:22:04.576Z,1022.36
2017-04-03T09:23:14.863Z,1022.35
2017-04-03T09:24:24.844Z,1022.32
2017-04-03T09:25:35.129Z,1022.33
2017-04-03T09:26:45.647Z,1022.35
2017-04-03T09:27:55.615Z,1022.35
2017-04-03T09:29:05.915Z,1022.35
2017-04-03T09:30:16.192Z,1022.36
2017-04-03T09:31:26.163Z,1022.37
2017-04-03T09:32:36.703Z,1022.34
2017-04-03T09:33:46.991Z,1022.38
2017-04-03T09:34:56.652Z,1022.35
2017-04-03T09:36:06.925Z,1022.42
2017-04-03T09:37:16.907Z,1022.43
2017-04-03T09:38:27.469Z,1022.38
2017-04-03T09:39:37.428Z,1022.36
2017-04-03T09:40:47.722Z,1022.38
2017-04-03T09:41:58.033Z,1022.35
2017-04-03T09:43:08.319Z,1022.34
2017-04-03T09:44:18.898Z,1022.38
2017-04-03T09:45:29.180Z,1022.4
2017-04-03T09:46:39.471Z,1022.4
2017-04-03T09:47:49.764Z,1022.34
2017-04-03T09:49:00.098Z,1022.4
2017-04-03T09:50:10.626Z,1022.4
2017-04-03T09:51:20.291Z,1022.42
2017-04-03T09:52:30.262Z,1022.43
2017-04-03T09:53:40.541Z,1022.41
2017-04-03T09:54:50.883Z,1022.43
2017-04-03T09:56:01.473Z,1022.41
2017-04-03T09:57:11.141Z,1022.4
2017-04-03T09:58:21.116Z,1022.42
2017-04-03T09:59:31.414Z,1022.44
2017-04-03T10:00:41.388Z,1022.45
2017-04-03T10:01:51.934Z,1022.5
2017-04-03T10:03:01.903Z,1022.47
2017-04-03T10:04:12.198Z,1022.48
2017-04-03T10:05:22.166Z,1022.51
2017-04-03T10:06:32.144Z,1022.49
2017-04-03T10:07:42.053Z,1022.49
2017-04-03T10:08:52.329Z,1022.48
2017-04-03T10:10:02.637Z,1022.49
2017-04-03T10:11:12.926Z,1022.49
2017-04-03T10:12:22.960Z,1022.49
2017-04-03T10:13:33.473Z,1022.51
2017-04-03T10:14:43.450Z,1022.48
2017-04-03T10:15:53.731Z,1022.51
2017-04-03T10:17:04.015Z,1022.52
2017-04-03T10:18:14.307Z,1022.57
2017-04-03T10:19:24.881Z,1022.53
2017-04-03T10:20:34.858Z,1022.58
2017-04-03T10:21:45.128Z,1022.52
2017-04-03T10:22:55.412Z,1022.54
2017-04-03T10:24:05.378Z,1022.56
2017-04-03T10:25:15.963Z,1022.55
2017-04-03T10:26:26.295Z,1022.57
2017-04-03T10:27:36.269Z,1022.55
2017-04-03T10:28:46.561Z,1022.54
2017-04-03T10:29:56.591Z,1022.55
2017-04-03T10:31:07.123Z,1022.58
2017-04-03T10:32:17.404Z,1022.55
2017-04-03T10:33:27.689Z,1022.58
2017-04-03T10:34:38.015Z,1022.56
2017-04-03T10:35:48.003Z,1022.58
2017-04-03T10:36:58.578Z,1022.57
2017-04-03T10:38:08.891Z,1022.54
2017-04-03T10:39:19.176Z,1022.5
2017-04-03T10:40:29.463Z,1022.51
2017-04-03T10:41:39.743Z,1022.58
2017-04-03T10:42:49.656Z,1022.54
2017-04-03T10:43:59.630Z,1022.58
2017-04-03T10:45:09.929Z,1022.58
2017-04-03T10:46:20.212Z,1022.52
2017-04-03T10:47:30.200Z,1022.56
2017-04-03T10:48:40.748Z,1022.53
2017-04-03T10:49:51.273Z,1022.57
2017-04-03T10:51:01.248Z,1022.59
2017-04-03T10:52:11.568Z,1022.55
2017-04-03T10:53:21.860Z,1022.61
2017-04-03T10:54:32.081Z,1022.57
2017-04-03T10:55:42.115Z,1022.57
2017-04-03T10:56:52.110Z,1022.54
2017-04-03T10:58:02.388Z,1022.56
2017-04-03T10:59:12.706Z,1022.57
2017-04-03T11:00:23.224Z,1022.58
2017-04-03T11:01:33.232Z,1022.6
2017-04-03T11:02:43.197Z,1022.56
2017-04-03T11:03:53.735Z,1022.52
2017-04-03T11:05:04.025Z,1022.53
2017-04-03T11:06:14.563Z,1022.54
2017-04-03T11:07:24.552Z,1022.59
2017-04-03T11:08:34.544Z,1022.61
2017-04-03T11:09:44.522Z,1022.55
2017-04-03T11:10:54.819Z,1022.62
2017-04-03T11:12:05.353Z,1022.63
2017-04-03T11:13:15.320Z,1022.62
2017-04-03T11:14:25.608Z,1022.61
2017-04-03T11:15:35.887Z,1022.63
2017-04-03T11:16:45.878Z,1022.6
2017-04-03T11:17:56.417Z,1022.6
2017-04-03T11:19:06.702Z,1022.62
2017-04-03T11:20:16.676Z,1022.62
2017-04-03T11:21:26.660Z,1022.61
2017-04-03T11:22:36.954Z,1022.55
2017-04-03T11:23:47.179Z,1022.58
2017-04-03T11:24:57.480Z,1022.57
2017-04-03T11:26:07.461Z,1022.56
2017-04-03T11:27:17.779Z,1022.56
2017-04-03T11:28:28.078Z,1022.59
2017-04-03T11:29:38.349Z,1022.56
2017-04-03T11:30:48.358Z,1022.54
2017-04-03T11:31:58.652Z,1022.56
2017-04-03T11:33:08.947Z,1022.57
2017-04-03T11:34:18.943Z,1022.55
2017-04-03T11:35:29.162Z,1022.53
2017-04-03T11:36:39.470Z,1022.58
2017-04-03T11:37:49.767Z,1022.53
2017-04-03T11:39:00.101Z,1022.54
2017-04-03T11:40:10.454Z,1022.57
2017-04-03T11:41:20.682Z,1022.59
2017-04-03T11:42:30.674Z,1022.58
2017-04-03T11:43:40.997Z,1022.58
2017-04-03T11:44:51.291Z,1022.6
2017-04-03T11:46:01.686Z,1022.55
2017-04-03T11:47:11.949Z,1022.58
2017-04-03T11:48:22.552Z,1022.56
2017-04-03T11:49:32.851Z,1022.55
2017-04-03T11:50:42.881Z,1022.56
2017-04-03T11:51:53.167Z,1022.56
2017-04-03T11:53:03.073Z,1022.54
2017-04-03T11:54:13.401Z,1022.57
2017-04-03T11:55:23.682Z,1022.56
2017-04-03T11:56:33.968Z,1022.53
2017-04-03T11:57:44.244Z,1022.53
2017-04-03T11:58:54.816Z,1022.51
2017-04-03T12:00:04.809Z,1022.54
2017-04-03T12:01:15.093Z,1022.54
2017-04-03T12:02:25.396Z,1022.53
2017-04-03T12:03:35.369Z,1022.56
2017-04-03T12:04:44.974Z,1022.52
2017-04-03T12:05:55.242Z,1022.51
2017-04-03T12:07:05.533Z,1022.53
2017-04-03T12:08:15.562Z,1022.53
2017-04-03T12:09:25.859Z,1022.5
2017-04-03T12:10:36.383Z,1022.48
2017-04-03T12:11:46.680Z,1022.52
2017-04-03T12:12:56.669Z,1022.51
2017-04-03T12:14:06.946Z,1022.53
2017-04-03T12:15:17.226Z,1022.55
2017-04-03T12:16:27.502Z,1022.51
2017-04-03T12:17:37.796Z,1022.54
2017-04-03T12:18:48.072Z,1022.5
2017-04-03T12:19:58.052Z,1022.54
2017-04-03T12:21:08.021Z,1022.56
2017-04-03T12:22:18.252Z,1022.56
2017-04-03T12:23:28.534Z,1022.6
2017-04-03T12:24:38.826Z,1022.52
2017-04-03T12:25:48.789Z,1022.58
2017-04-03T12:26:58.764Z,1022.55
2017-04-03T12:28:09.291Z,1022.53
2017-04-03T12:29:19.263Z,1022.53
2017-04-03T12:30:29.242Z,1022.55
2017-04-03T12:31:39.523Z,1022.55
2017-04-03T12:32:49.814Z,1022.57
2017-04-03T12:34:00.091Z,1022.54
2017-04-03T12:35:10.077Z,1022.53
2017-04-03T12:36:20.371Z,1022.54
2017-04-03T12:37:30.652Z,1022.53
2017-04-03T12:38:40.930Z,1022.52
2017-04-03T12:39:51.220Z,1022.52
2017-04-03T12:41:01.513Z,1022.54
2017-04-03T12:42:11.491Z,1022.54
2017-04-03T12:43:21.995Z,1022.53
2017-04-03T12:44:31.651Z,1022.53
2017-04-03T12:45:42.591Z,1022.55
2017-04-03T12:46:52.569Z,1022.53
2017-04-03T12:48:02.860Z,1022.5
2017-04-03T12:49:12.864Z,1022.5
2017-04-03T12:50:23.157Z,1022.55
2017-04-03T12:51:33.712Z,1022.54
2017-04-03T12:52:43.993Z,1022.5
2017-04-03T12:53:54.263Z,1022.51
2017-04-03T12:55:04.554Z,1022.52
2017-04-03T12:56:14.842Z,1022.49
2017-04-03T12:57:25.433Z,1022.5
2017-04-03T12:58:35.714Z,1022.51
2017-04-03T12:59:45.995Z,1022.48
2017-04-03T13:00:55.986Z,1022.48
2017-04-03T13:02:05.961Z,1022.46
2017-04-03T13:03:16.508Z,1022.45
2017-04-03T13:04:26.170Z,1022.49
2017-04-03T13:05:35.825Z,1022.51
2017-04-03T13:06:46.117Z,1022.5
2017-04-03T13:07:56.400Z,1022.49
2017-04-03T13:09:06.673Z,1022.44
2017-04-03T13:10:16.651Z,1022.4
2017-04-03T13:11:26.938Z,1022.41
2017-04-03T13:12:37.240Z,1022.44
2017-04-03T13:13:47.523Z,1022.4
2017-04-03T13:14:57.807Z,1022.38
2017-04-03T13:16:07.777Z,1022.41
2017-04-03T13:17:17.748Z,1022.35
2017-04-03T13:18:27.715Z,1022.36
2017-04-03T13:19:37.999Z,1022.36
2017-04-03T13:20:47.966Z,1022.38
2017-04-03T13:21:58.258Z,1022.35
2017-04-03T13:23:08.601Z,1022.37
2017-04-03T13:24:18.890Z,1022.36
2017-04-03T13:25:29.171Z,1022.38
2017-04-03T13:26:39.795Z,1022.4
2017-04-03T13:27:49.775Z,1022.41
2017-04-03T13:28:59.133Z,1022.46
2017-04-03T13:30:09.415Z,1022.43
2017-04-03T13:31:19.687Z,1022.42
2017-04-03T13:32:34.542Z,1022.38
2017-04-03T13:33:44.571Z,1022.37
2017-04-03T13:34:54.280Z,1022.34
2017-04-03T13:36:04.578Z,1022.35
2017-04-03T13:37:14.549Z,1022.35
2017-04-03T13:38:25.156Z,1022.32
2017-04-03T13:39:34.844Z,1022.38
2017-04-03T13:40:44.823Z,1022.35
2017-04-03T13:41:54.803Z,1022.37
2017-04-03T13:43:05.079Z,1022.36
2017-04-03T13:44:15.621Z,1022.37
2017-04-03T13:45:25.901Z,1022.33
2017-04-03T13:46:36.189Z,1022.31
2017-04-03T13:47:46.180Z,1022.34
2017-04-03T13:48:56.470Z,1022.3
2017-04-03T13:50:06.704Z,1022.27
2017-04-03T13:51:16.980Z,1022.28
2017-04-03T13:52:27.335Z,1022.26
2017-04-03T13:53:37.614Z,1022.3
2017-04-03T13:54:47.900Z,1022.29
2017-04-03T13:55:58.478Z,1022.29
2017-04-03T13:57:08.459Z,1022.28
2017-04-03T13:58:18.781Z,1022.26
2017-04-03T13:59:28.755Z,1022.27
2017-04-03T14:00:39.052Z,1022.25
2017-04-03T14:01:49.596Z,1022.28
2017-04-03T14:02:59.885Z,1022.28
2017-04-03T14:04:10.216Z,1022.24
2017-04-03T14:05:20.504Z,1022.24
2017-04-03T14:06:30.782Z,1022.21
2017-04-03T14:07:41.386Z,1022.2
2017-04-03T14:08:51.369Z,1022.24
2017-04-03T14:10:01.656Z,1022.23
2017-04-03T14:11:11.967Z,1022.19
2017-04-03T14:12:22.241Z,1022.22